createdAt,value
2023-03-22T00:00:15.675Z,29.23
2023-03-22T00:02:43.323Z,28.17
2023-03-22T00:05:11.075Z,28.33
2023-03-22T00:07:41.183Z,28.93
2023-03-22T00:10:09.374Z,29.93
2023-03-22T00:12:36.898Z,28.90
2023-03-22T00:15:04.840Z,27.97
2023-03-22T00:17:33.122Z,28.27
2023-03-22T00:20:00.615Z,28.23
2023-03-22T00:22:28.020Z,28.03
2023-03-22T00:24:55.567Z,29.80
2023-03-22T00:27:23.009Z,28.87
2023-03-22T00:29:52.869Z,27.07
2023-03-22T00:32:20.599Z,28.67
2023-03-22T00:34:48.124Z,26.53
2023-03-22T00:37:18.803Z,26.67
2023-03-22T00:39:46.440Z,25.83
2023-03-22T00:42:13.904Z,28.73
2023-03-22T00:44:41.579Z,26.80
2023-03-22T00:47:09.055Z,27.70
2023-03-22T00:49:37.730Z,27.33
2023-03-22T00:52:05.583Z,29.07
2023-03-22T00:54:33.093Z,26.90
2023-03-22T00:57:00.786Z,26.37
2023-03-22T00:59:28.602Z,25.80
2023-03-22T01:01:58.432Z,25.53
2023-03-22T01:04:26.473Z,26.00
2023-03-22T01:06:59.558Z,24.77
2023-03-22T01:09:29.744Z,24.97
2023-03-22T01:12:02.941Z,25.37
2023-03-22T01:14:31.900Z,24.97
2023-03-22T01:16:59.528Z,24.27
2023-03-22T01:19:30.134Z,25.07
2023-03-22T01:21:57.939Z,27.33
2023-03-22T01:24:25.582Z,26.60
2023-03-22T01:26:53.072Z,25.90
2023-03-22T01:29:20.711Z,25.27
2023-03-22T01:31:48.191Z,22.87
2023-03-22T01:34:15.687Z,23.53
2023-03-22T01:36:43.356Z,23.50
2023-03-22T01:39:11.629Z,22.23
2023-03-22T01:41:39.298Z,22.50
2023-03-22T01:44:16.552Z,22.90
2023-03-22T01:46:47.076Z,22.50
2023-03-22T01:49:34.983Z,22.73
2023-03-22T01:52:14.791Z,22.97
2023-03-22T01:54:48.806Z,22.10
2023-03-22T01:57:16.711Z,21.57
2023-03-22T01:59:45.195Z,22.07
2023-03-22T02:02:20.256Z,20.87
2023-03-22T02:04:58.269Z,21.87
2023-03-22T02:07:28.863Z,21.67
2023-03-22T02:09:57.035Z,21.27
2023-03-22T02:12:51.955Z,20.23
2023-03-22T02:15:30.402Z,21.27
2023-03-22T02:18:24.498Z,20.77
2023-03-22T02:21:12.972Z,21.23
2023-03-22T02:24:10.095Z,21.13
2023-03-22T02:27:05.130Z,20.43
2023-03-22T02:30:14.693Z,20.80
2023-03-22T02:33:10.343Z,21.83
2023-03-22T02:35:43.432Z,22.03
2023-03-22T02:38:52.726Z,21.80
2023-03-22T02:41:53.933Z,21.93
2023-03-22T02:45:01.676Z,20.93
2023-03-22T02:47:55.514Z,20.77
2023-03-22T02:50:33.434Z,21.37
2023-03-22T02:53:21.431Z,20.83
2023-03-22T02:56:01.555Z,21.20
2023-03-22T02:58:46.139Z,21.30
2023-03-22T03:01:40.185Z,22.27
2023-03-22T03:04:14.884Z,21.60
2023-03-22T03:06:47.327Z,22.17
2023-03-22T03:09:18.475Z,20.87
2023-03-22T03:11:52.780Z,21.50
2023-03-22T03:14:33.317Z,22.00
2023-03-22T03:17:57.755Z,20.80
2023-03-22T03:20:49.439Z,21.67
2023-03-22T03:23:29.053Z,21.63
2023-03-22T03:26:17.730Z,21.80
2023-03-22T03:29:30.366Z,21.70
2023-03-22T03:32:17.285Z,20.63
2023-03-22T03:35:00.002Z,20.97
2023-03-22T03:37:39.498Z,20.50
2023-03-22T03:40:34.300Z,20.27
2023-03-22T03:43:04.642Z,18.43
2023-03-22T03:45:33.177Z,19.50
2023-03-22T03:48:06.926Z,19.00
2023-03-22T03:50:35.483Z,21.27
2023-03-22T03:53:03.807Z,19.30
2023-03-22T03:55:32.225Z,20.43
2023-03-22T03:57:59.713Z,20.20
2023-03-22T04:00:27.253Z,20.60
2023-03-22T04:02:55.107Z,20.77
2023-03-22T04:05:22.557Z,21.27
2023-03-22T04:07:50.062Z,21.80
2023-03-22T04:10:17.696Z,25.87
2023-03-22T04:12:45.250Z,23.27
2023-03-22T04:15:13.259Z,25.83
2023-03-22T04:17:41.600Z,22.50
2023-03-22T04:20:11.215Z,24.03
2023-03-22T04:22:40.025Z,21.17
2023-03-22T04:25:12.185Z,20.70
2023-03-22T04:27:41.675Z,20.57
2023-03-22T04:30:19.125Z,20.03
2023-03-22T04:32:48.001Z,25.37
2023-03-22T04:35:16.499Z,27.63
2023-03-22T04:37:44.685Z,30.17
2023-03-22T04:40:17.455Z,29.10
2023-03-22T04:42:45.770Z,30.17
2023-03-22T04:45:14.512Z,28.27
2023-03-22T04:47:42.178Z,26.60
2023-03-22T04:50:10.174Z,26.77
2023-03-22T04:52:37.628Z,23.90
2023-03-22T04:55:05.651Z,25.50
2023-03-22T04:57:35.005Z,22.97
2023-03-22T05:00:06.274Z,21.13
2023-03-22T05:02:33.803Z,20.97
2023-03-22T05:05:01.783Z,20.43
2023-03-22T05:07:29.492Z,21.50
2023-03-22T05:09:56.962Z,20.67
2023-03-22T05:12:24.443Z,20.20
2023-03-22T05:14:51.982Z,20.00
2023-03-22T05:17:19.520Z,24.83
2023-03-22T05:19:47.940Z,23.73
2023-03-22T05:22:15.419Z,24.07
2023-03-22T05:24:42.954Z,24.27
2023-03-22T05:27:11.086Z,39.03
2023-03-22T05:29:38.500Z,52.33
2023-03-22T05:32:06.478Z,39.73
2023-03-22T05:34:36.095Z,30.30
2023-03-22T05:37:04.154Z,27.23
2023-03-22T05:39:32.160Z,29.40
2023-03-22T05:41:59.643Z,24.17
2023-03-22T05:44:27.160Z,25.43
2023-03-22T05:46:54.673Z,25.23
2023-03-22T05:49:22.142Z,24.60
2023-03-22T05:51:50.820Z,23.37
2023-03-22T05:54:18.284Z,23.60
2023-03-22T05:56:46.036Z,23.97
2023-03-22T05:59:13.584Z,25.33
2023-03-22T06:01:41.249Z,24.87
2023-03-22T06:04:08.751Z,24.07
2023-03-22T06:06:36.243Z,22.73
2023-03-22T06:09:16.569Z,23.73
2023-03-22T06:11:45.064Z,23.47
2023-03-22T06:14:12.879Z,25.00
2023-03-22T06:16:41.298Z,23.30
2023-03-22T06:19:08.899Z,23.17
2023-03-22T06:21:36.372Z,27.20
2023-03-22T06:24:04.025Z,25.83
2023-03-22T06:26:31.654Z,26.60
2023-03-22T06:28:59.164Z,30.23
2023-03-22T06:31:26.600Z,30.10
2023-03-22T06:33:55.850Z,29.37
2023-03-22T06:36:23.454Z,34.80
2023-03-22T06:38:50.919Z,41.07
2023-03-22T06:41:18.647Z,28.93
2023-03-22T06:43:46.389Z,37.33
2023-03-22T06:46:14.410Z,41.57
2023-03-22T06:48:42.100Z,34.20
2023-03-22T06:51:09.563Z,27.20
2023-03-22T06:53:37.077Z,25.97
2023-03-22T06:56:05.626Z,24.57
2023-03-22T06:58:33.185Z,22.97
2023-03-22T07:01:00.837Z,30.40
2023-03-22T07:03:28.531Z,25.77
2023-03-22T07:06:04.400Z,22.20
2023-03-22T07:08:31.946Z,22.87
2023-03-22T07:11:00.413Z,22.67
2023-03-22T07:13:28.206Z,22.57
2023-03-22T07:16:01.359Z,22.53
2023-03-22T07:18:30.780Z,22.37
2023-03-22T07:20:58.270Z,21.30
2023-03-22T07:23:26.188Z,22.13
2023-03-22T07:25:56.093Z,24.60
2023-03-22T07:28:23.861Z,23.30
2023-03-22T07:31:01.741Z,20.40
2023-03-22T07:33:29.681Z,19.73
2023-03-22T07:35:57.198Z,20.37
2023-03-22T07:38:25.126Z,19.83
2023-03-22T07:40:56.916Z,19.80
2023-03-22T07:43:24.975Z,19.90
2023-03-22T07:45:53.337Z,19.43
2023-03-22T07:48:24.031Z,20.10
2023-03-22T07:50:56.674Z,19.93
2023-03-22T07:53:24.180Z,20.13
2023-03-22T07:55:52.375Z,20.17
2023-03-22T07:58:21.346Z,20.77
2023-03-22T08:00:50.535Z,20.37
2023-03-22T08:03:18.046Z,19.87
2023-03-22T08:05:45.676Z,19.17
2023-03-22T08:08:13.749Z,19.40
2023-03-22T08:10:41.523Z,17.87
2023-03-22T08:13:09.304Z,18.27
2023-03-22T08:15:38.828Z,15.73
2023-03-22T08:18:08.828Z,14.70
2023-03-22T08:20:38.568Z,15.63
2023-03-22T08:23:08.166Z,14.70
2023-03-22T08:25:37.265Z,15.13
2023-03-22T08:28:04.894Z,14.53
2023-03-22T08:30:33.379Z,14.47
2023-03-22T08:33:01.225Z,14.50
2023-03-22T08:35:28.785Z,14.60
2023-03-22T08:37:57.361Z,14.47
2023-03-22T08:40:24.875Z,14.27
2023-03-22T08:42:52.418Z,13.93
2023-03-22T08:45:20.000Z,15.53
2023-03-22T08:47:47.480Z,14.10
2023-03-22T08:50:15.100Z,14.07
2023-03-22T08:52:42.636Z,14.60
2023-03-22T08:55:10.702Z,12.83
2023-03-22T08:57:38.943Z,12.40
2023-03-22T09:00:07.866Z,12.40
2023-03-22T09:02:35.481Z,14.20
2023-03-22T09:05:02.940Z,13.83
2023-03-22T09:07:30.673Z,12.70
2023-03-22T09:09:58.187Z,14.03
2023-03-22T09:12:26.400Z,13.57
2023-03-22T09:14:55.769Z,12.97
2023-03-22T09:17:24.331Z,13.30
2023-03-22T09:20:02.737Z,13.70
2023-03-22T09:22:37.508Z,14.10
2023-03-22T09:25:06.314Z,13.23
2023-03-22T09:27:34.348Z,14.37
2023-03-22T09:30:01.835Z,13.60
2023-03-22T09:32:29.310Z,13.83
2023-03-22T09:34:56.811Z,13.10
2023-03-22T09:37:30.448Z,12.10
2023-03-22T09:39:58.458Z,12.10
2023-03-22T09:42:50.966Z,13.70
2023-03-22T09:45:33.101Z,13.73
2023-03-22T09:48:01.649Z,13.03
2023-03-22T09:50:33.394Z,11.50
2023-03-22T09:53:01.429Z,12.73
2023-03-22T09:55:52.748Z,12.30
2023-03-22T09:58:41.836Z,8.93
2023-03-22T10:01:25.481Z,9.93
2023-03-22T10:04:11.551Z,10.33
2023-03-22T10:06:40.535Z,11.03
2023-03-22T10:09:34.995Z,17.90
2023-03-22T10:12:16.711Z,10.77
2023-03-22T10:14:58.986Z,9.17
2023-03-22T10:17:30.149Z,9.27
2023-03-22T10:20:09.670Z,9.13
2023-03-22T10:22:42.258Z,8.30
2023-03-22T10:25:16.206Z,10.87
2023-03-22T10:27:44.158Z,9.70
2023-03-22T10:30:27.831Z,10.87
2023-03-22T10:33:03.375Z,7.00
2023-03-22T10:35:32.358Z,7.60
2023-03-22T10:38:04.397Z,8.40
2023-03-22T10:40:35.377Z,6.80
2023-03-22T10:43:37.484Z,6.40
2023-03-22T10:46:09.216Z,6.60
2023-03-22T10:48:42.671Z,7.40
2023-03-22T10:51:46.402Z,7.00
2023-03-22T10:54:17.307Z,8.07
2023-03-22T10:56:45.906Z,6.90
2023-03-22T10:59:58.867Z,7.27
2023-03-22T11:02:32.957Z,7.00
2023-03-22T11:05:04.586Z,7.77
2023-03-22T11:07:45.077Z,7.47
2023-03-22T11:10:30.178Z,7.03
2023-03-22T11:13:14.620Z,7.20
2023-03-22T11:15:54.984Z,6.80
2023-03-22T11:18:23.218Z,6.53
2023-03-22T11:21:01.427Z,6.70
2023-03-22T11:23:34.305Z,6.83
2023-03-22T11:26:13.210Z,7.10
2023-03-22T11:28:51.333Z,7.03
2023-03-22T11:31:21.378Z,5.97
2023-03-22T11:34:02.513Z,6.20
2023-03-22T11:36:30.200Z,8.00
2023-03-22T11:39:07.448Z,7.73
2023-03-22T11:41:40.287Z,7.47
2023-03-22T11:44:16.249Z,7.57
2023-03-22T11:46:58.174Z,6.77
2023-03-22T11:49:51.473Z,6.67
2023-03-22T11:52:25.124Z,7.37
2023-03-22T11:54:54.800Z,7.47
2023-03-22T11:57:27.043Z,7.10
2023-03-22T12:00:21.584Z,7.90
2023-03-22T12:03:14.301Z,7.03
2023-03-22T12:05:45.338Z,7.43
2023-03-22T12:08:43.075Z,6.73
2023-03-22T12:11:40.036Z,7.77
2023-03-22T12:14:33.330Z,7.23
2023-03-22T12:17:21.615Z,8.03
2023-03-22T12:20:12.958Z,6.93
2023-03-22T12:22:51.260Z,6.90
2023-03-22T12:25:25.560Z,7.53
2023-03-22T12:28:27.207Z,6.93
2023-03-22T12:31:05.333Z,7.70
2023-03-22T12:33:52.808Z,7.90
2023-03-22T12:37:00.772Z,8.00
2023-03-22T12:40:14.645Z,8.47
2023-03-22T12:43:20.827Z,7.37
2023-03-22T12:46:03.538Z,7.73
2023-03-22T12:48:45.999Z,7.73
2023-03-22T12:51:15.617Z,7.07
2023-03-22T12:53:48.772Z,7.00
2023-03-22T12:56:42.791Z,8.67
2023-03-22T12:59:26.772Z,7.97
2023-03-22T13:02:37.056Z,7.30
2023-03-22T13:05:09.470Z,7.03
2023-03-22T13:07:52.304Z,7.53
2023-03-22T13:10:32.582Z,7.63
2023-03-22T13:13:24.464Z,7.60
2023-03-22T13:16:11.340Z,6.87
2023-03-22T13:18:43.939Z,8.30
2023-03-22T13:21:22.918Z,6.53
2023-03-22T13:24:10.646Z,6.37
2023-03-22T13:26:54.030Z,6.07
2023-03-22T13:29:33.116Z,6.20
2023-03-22T13:32:30.256Z,5.97
2023-03-22T13:34:58.074Z,5.80
2023-03-22T13:37:31.848Z,7.23
2023-03-22T13:40:02.465Z,7.00
2023-03-22T13:42:39.251Z,6.23
2023-03-22T13:45:32.495Z,5.80
2023-03-22T13:48:24.428Z,6.47
2023-03-22T13:50:53.508Z,5.43
2023-03-22T13:53:34.001Z,4.70
2023-03-22T13:56:07.497Z,4.63
2023-03-22T13:58:54.485Z,6.00
2023-03-22T14:01:37.974Z,6.07
2023-03-22T14:04:12.484Z,6.50
2023-03-22T14:07:08.653Z,5.87
2023-03-22T14:09:53.450Z,4.83
2023-03-22T14:12:30.601Z,5.60
2023-03-22T14:15:02.712Z,5.90
2023-03-22T14:17:44.603Z,6.00
2023-03-22T14:20:19.452Z,5.50
